Thursday, November 15, 2018, 8:39 PM EST
Back to Local

KPQI, Presque Isle

Location: Presque Isle, ME, United States Lat: 46.683
Local Time: 8:39 PM EST ( 1:39 GMT) Lon: -68.05
Time Zone: US/Eastern Elev: 534 ft

Show me the last for .
Show Coded

Time T Td Feel RH Dir Speed Gust Alt SLP Vis Weather Sky Remarks
2018-11-15 19:56 9 6 - 87 - Calm - 30.40 30.55 10 CLR None
2018-11-15 18:56 11 7 5 83 270° 3 - 30.42 30.55 10 CLR 6-hr Min Temp (7pm): 10.0°F
6-hr Max Temp (7pm): 24.1°F
2018-11-15 17:56 11 6 - 80 - Calm - 30.42 30.56 10 CLR None
2018-11-15 16:56 15 7 - 69 - Calm - 30.44 30.58 10 CLR None
2018-11-15 15:56 19 6 - 56 - Calm - 30.45 30.59 10 CLR None
2018-11-15 14:56 22 7 13 51 250° 7 - 30.45 30.59 10 CLR None
2018-11-15 13:56 24 8 15 49 280° 8 - 30.44 30.58 10 CLR None
2018-11-15 12:56 24 8 14 49 260° 10 - 30.47 30.60 10 CLR 6-hr Min Temp (1pm): 7.0°F
6-hr Max Temp (1pm): 25.0°F
2018-11-15 11:56 24 8 14 49 270° 10 - 30.46 30.60 10 CLR None
2018-11-15 10:56 21 7 13 53 270° 6 - 30.47 30.61 10 CLR None
2018-11-15 09:56 17 6 8 61 280° 7 - 30.50 30.63 10 CLR None
2018-11-15 08:56 13 3 2 63 280° 8 - 30.51 30.65 10 CLR None
2018-11-15 07:56 12 3 3 66 210° 6 - 30.52 30.67 10 CLR None
2018-11-15 06:56 7 2 -2 79 250° 5 - 30.53 30.68 10 CLR 6-hr Min Temp (7am): 5.0°F
6-hr Max Temp (7am): 12.9°F
2018-11-15 05:56 6 1 -4 79 190° 6 - 30.50 30.65 10 CLR None
2018-11-15 04:56 9 3 -10 76 290° 12 20 30.47 30.61 10 CLR None
2018-11-15 03:56 10 4 -10 75 300° 15 22 30.45 30.59 10 CLR None
2018-11-15 02:56 11 4 -4 72 280° 13 - 30.42 30.56 10 CLR None
2018-11-15 01:56 12 4 -6 69 290° 13 20 30.40 30.53 10 CLR None
2018-11-15 00:56 12 5 -7 72 280° 14 22 30.37 30.51 10 CLR 6-hr Precip Total (1am): 0.00"
6-hr Min Temp (1am): 12.0°F
6-hr Max Temp (1am): 14.0°F
2018-11-14 23:56 12 5 0 72 270° 8 - 30.34 30.47 10 CLR 24-hr Min Temp (12am): 10.9°F
24-hr Max Temp (12am): 32.0°F
2018-11-14 22:56 13 5 -1 69 280° 12 - 30.29 30.43 10 CLR None
2018-11-14 21:56 13 6 -4 73 310° 8 17 30.25 30.38 10 CLR 6-hr Precip Total (10pm): 0.00"
2018-11-14 20:56 13 6 -9 73 290° 21 31 30.23 30.37 10 CLR Peak wind: 33 mph (29 kts) from 280° at 11 min
1-hr Precip Total: Trace

Support USWX by starting your Amazon purchase here.